Terminal Aerodrome Forecast
Issued by NWS Glasgow, MT

Home | Current Version | Previous Version | Text Only | Print | Product List | Glossary On
Versions: 1 2 3 4 5 6 7 8 9 10 11 12 13 14 15 16
088
FTUS45 KGGW 191735
TAFGGW
TAF
KGGW 191735Z 1918/2018 12013G19KT 1SM BR OVC002
     FM192200 09005KT 4SM BR SCT003 BKN015
     FM200500 20004KT 1SM BR SCT002 OVC009
     FM201600 24006KT 6SM BR FEW015 SCT060=

USA.gov is the U.S. government's official web portal to all federal, state and local government web resources and services.